Weather at Vertavill Apartments Heliport

Public forecast

Using degrees Celsius for public forecast. Weather courtesy of forecast.io.

Closest aviation weather report (METAR) to Vertavill Apartments Heliport

Closest report is Gimhae International Airport, 6.0 nm (11.1 km) WNW. Retrieved 2020/09/19 15:00 UTC (19 minutes ago):

RKPK 191500Z 36003KT CAVOK 18/15 Q1015

Closest aviation forecast (TAF) to Vertavill Apartments Heliport

Closest forecast is Gimhae International Airport, 6.0 nm (11.1 km) WNW. Retrieved 2020/09/19 12:00 UTC (3 hours ago):

TAF RKPK 191100Z 1912/2018 33006KT 9999 SCT030 TN14/1921Z TX26/2006Z BECMG 2002/2003 18009KT